sensor_id;sensor_type;location;lat;lon;timestamp;P1;durP1;ratioP1;P2;durP2;ratioP2
30185;SDS011;31152;49.190;8.122;2022-08-18T00:02:13;5.95;;;4.40;;
30185;SDS011;31152;49.190;8.122;2022-08-18T00:04:45;5.95;;;4.50;;
30185;SDS011;31152;49.190;8.122;2022-08-18T00:07:16;6.40;;;4.55;;
30185;SDS011;31152;49.190;8.122;2022-08-18T00:09:45;7.80;;;4.70;;
30185;SDS011;31152;49.190;8.122;2022-08-18T00:12:18;5.07;;;4.43;;
30185;SDS011;31152;49.190;8.122;2022-08-18T00:14:50;7.15;;;4.68;;
30185;SDS011;31152;49.190;8.122;2022-08-18T00:17:17;5.38;;;4.35;;
30185;SDS011;31152;49.190;8.122;2022-08-18T00:19:45;5.20;;;4.60;;
30185;SDS011;31152;49.190;8.122;2022-08-18T00:22:14;7.90;;;5.10;;
30185;SDS011;31152;49.190;8.122;2022-08-18T00:24:47;6.40;;;4.60;;
30185;SDS011;31152;49.190;8.122;2022-08-18T00:27:22;9.35;;;5.13;;
30185;SDS011;31152;49.190;8.122;2022-08-18T00:29:55;8.75;;;5.10;;
30185;SDS011;31152;49.190;8.122;2022-08-18T00:32:25;7.68;;;5.00;;
30185;SDS011;31152;49.190;8.122;2022-08-18T00:34:54;6.82;;;4.68;;
30185;SDS011;31152;49.190;8.122;2022-08-18T00:37:22;6.85;;;4.72;;
30185;SDS011;31152;49.190;8.122;2022-08-18T00:39:50;5.90;;;4.75;;
30185;SDS011;31152;49.190;8.122;2022-08-18T00:42:23;5.85;;;4.50;;
30185;SDS011;31152;49.190;8.122;2022-08-18T00:44:57;9.65;;;4.63;;
30185;SDS011;31152;49.190;8.122;2022-08-18T00:47:31;7.65;;;5.13;;
30185;SDS011;31152;49.190;8.122;2022-08-18T00:50:09;6.47;;;4.40;;
30185;SDS011;31152;49.190;8.122;2022-08-18T00:52:43;8.93;;;5.10;;
30185;SDS011;31152;49.190;8.122;2022-08-18T00:55:12;6.93;;;4.45;;
30185;SDS011;31152;49.190;8.122;2022-08-18T00:57:43;10.45;;;4.80;;
30185;SDS011;31152;49.190;8.122;2022-08-18T01:00:13;5.93;;;4.45;;
30185;SDS011;31152;49.190;8.122;2022-08-18T01:02:47;8.73;;;5.10;;
30185;SDS011;31152;49.190;8.122;2022-08-18T01:08:01;7.13;;;5.18;;
30185;SDS011;31152;49.190;8.122;2022-08-18T01:10:29;6.85;;;5.18;;
30185;SDS011;31152;49.190;8.122;2022-08-18T01:13:01;7.95;;;5.03;;
30185;SDS011;31152;49.190;8.122;2022-08-18T01:15:28;7.30;;;4.80;;
30185;SDS011;31152;49.190;8.122;2022-08-18T01:18:00;8.35;;;5.15;;
30185;SDS011;31152;49.190;8.122;2022-08-18T01:20:58;8.80;;;5.50;;
30185;SDS011;31152;49.190;8.122;2022-08-18T01:23:47;9.15;;;5.50;;
30185;SDS011;31152;49.190;8.122;2022-08-18T01:26:18;7.85;;;5.60;;
30185;SDS011;31152;49.190;8.122;2022-08-18T01:28:48;7.90;;;5.20;;
30185;SDS011;31152;49.190;8.122;2022-08-18T01:31:30;8.82;;;5.43;;
30185;SDS011;31152;49.190;8.122;2022-08-18T01:34:00;8.15;;;5.25;;
30185;SDS011;31152;49.190;8.122;2022-08-18T01:36:27;9.50;;;5.30;;
30185;SDS011;31152;49.190;8.122;2022-08-18T01:38:54;7.80;;;5.50;;
30185;SDS011;31152;49.190;8.122;2022-08-18T01:41:21;7.80;;;5.28;;
30185;SDS011;31152;49.190;8.122;2022-08-18T01:43:59;9.73;;;5.70;;
30185;SDS011;31152;49.190;8.122;2022-08-18T01:46:27;7.60;;;5.45;;
30185;SDS011;31152;49.190;8.122;2022-08-18T01:48:56;9.48;;;5.70;;
30185;SDS011;31152;49.190;8.122;2022-08-18T01:51:26;9.07;;;5.78;;
30185;SDS011;31152;49.190;8.122;2022-08-18T01:54:06;5.60;;;5.10;;
30185;SDS011;31152;49.190;8.122;2022-08-18T01:56:38;5.70;;;5.07;;
30185;SDS011;31152;49.190;8.122;2022-08-18T01:59:10;8.32;;;5.15;;
30185;SDS011;31152;49.190;8.122;2022-08-18T02:01:43;9.13;;;5.65;;
30185;SDS011;31152;49.190;8.122;2022-08-18T02:04:18;8.77;;;5.90;;
30185;SDS011;31152;49.190;8.122;2022-08-18T02:07:01;9.32;;;6.13;;
30185;SDS011;31152;49.190;8.122;2022-08-18T02:09:29;9.48;;;5.65;;
30185;SDS011;31152;49.190;8.122;2022-08-18T02:11:56;8.05;;;5.55;;
30185;SDS011;31152;49.190;8.122;2022-08-18T02:14:23;6.50;;;5.03;;
30185;SDS011;31152;49.190;8.122;2022-08-18T02:16:55;7.82;;;5.80;;
30185;SDS011;31152;49.190;8.122;2022-08-18T02:19:31;7.90;;;5.88;;
30185;SDS011;31152;49.190;8.122;2022-08-18T02:21:59;9.38;;;6.00;;
30185;SDS011;31152;49.190;8.122;2022-08-18T02:24:26;7.35;;;6.35;;
30185;SDS011;31152;49.190;8.122;2022-08-18T02:26:53;10.55;;;6.65;;
30185;SDS011;31152;49.190;8.122;2022-08-18T02:29:22;8.45;;;7.00;;
30185;SDS011;31152;49.190;8.122;2022-08-18T02:31:49;10.52;;;7.35;;
30185;SDS011;31152;49.190;8.122;2022-08-18T02:34:16;10.55;;;7.32;;
30185;SDS011;31152;49.190;8.122;2022-08-18T02:36:43;9.45;;;6.80;;
30185;SDS011;31152;49.190;8.122;2022-08-18T02:39:12;11.10;;;6.90;;
30185;SDS011;31152;49.190;8.122;2022-08-18T02:41:39;12.75;;;7.95;;
30185;SDS011;31152;49.190;8.122;2022-08-18T02:44:06;10.38;;;7.30;;
30185;SDS011;31152;49.190;8.122;2022-08-18T02:46:36;10.05;;;7.82;;
30185;SDS011;31152;49.190;8.122;2022-08-18T02:49:04;13.52;;;8.35;;
30185;SDS011;31152;49.190;8.122;2022-08-18T02:51:36;12.80;;;7.97;;
30185;SDS011;31152;49.190;8.122;2022-08-18T02:54:03;10.25;;;7.88;;
30185;SDS011;31152;49.190;8.122;2022-08-18T02:56:36;12.15;;;8.02;;
30185;SDS011;31152;49.190;8.122;2022-08-18T02:59:08;13.47;;;8.37;;
30185;SDS011;31152;49.190;8.122;2022-08-18T03:01:41;10.15;;;8.55;;
30185;SDS011;31152;49.190;8.122;2022-08-18T03:04:13;10.60;;;8.77;;
30185;SDS011;31152;49.190;8.122;2022-08-18T03:06:44;10.57;;;8.77;;
30185;SDS011;31152;49.190;8.122;2022-08-18T03:09:15;11.85;;;9.45;;
30185;SDS011;31152;49.190;8.122;2022-08-18T03:11:44;11.95;;;9.90;;
30185;SDS011;31152;49.190;8.122;2022-08-18T03:14:14;11.55;;;9.25;;
30185;SDS011;31152;49.190;8.122;2022-08-18T03:16:45;12.45;;;9.82;;
30185;SDS011;31152;49.190;8.122;2022-08-18T03:19:29;17.90;;;10.90;;
30185;SDS011;31152;49.190;8.122;2022-08-18T03:21:59;15.80;;;12.15;;
30185;SDS011;31152;49.190;8.122;2022-08-18T03:24:29;17.10;;;12.57;;
30185;SDS011;31152;49.190;8.122;2022-08-18T03:26:58;17.67;;;12.30;;
30185;SDS011;31152;49.190;8.122;2022-08-18T03:29:31;17.13;;;13.25;;
30185;SDS011;31152;49.190;8.122;2022-08-18T03:32:02;16.90;;;12.57;;
30185;SDS011;31152;49.190;8.122;2022-08-18T03:34:32;16.27;;;13.63;;
30185;SDS011;31152;49.190;8.122;2022-08-18T03:37:01;18.23;;;14.48;;
30185;SDS011;31152;49.190;8.122;2022-08-18T03:39:30;22.95;;;15.43;;
30185;SDS011;31152;49.190;8.122;2022-08-18T03:42:00;18.75;;;14.25;;
30185;SDS011;31152;49.190;8.122;2022-08-18T03:44:33;19.95;;;14.88;;
30185;SDS011;31152;49.190;8.122;2022-08-18T03:47:02;19.25;;;15.02;;
30185;SDS011;31152;49.190;8.122;2022-08-18T03:49:33;20.20;;;15.52;;
30185;SDS011;31152;49.190;8.122;2022-08-18T03:52:02;18.25;;;15.32;;
30185;SDS011;31152;49.190;8.122;2022-08-18T03:54:34;21.08;;;15.63;;
30185;SDS011;31152;49.190;8.122;2022-08-18T03:57:08;21.02;;;15.70;;
30185;SDS011;31152;49.190;8.122;2022-08-18T03:59:36;21.88;;;16.27;;
30185;SDS011;31152;49.190;8.122;2022-08-18T04:02:06;22.85;;;16.15;;
30185;SDS011;31152;49.190;8.122;2022-08-18T04:04:33;22.02;;;15.38;;
30185;SDS011;31152;49.190;8.122;2022-08-18T04:07:02;20.98;;;16.00;;
30185;SDS011;31152;49.190;8.122;2022-08-18T04:09:35;18.17;;;15.38;;
30185;SDS011;31152;49.190;8.122;2022-08-18T04:12:07;17.90;;;14.10;;
30185;SDS011;31152;49.190;8.122;2022-08-18T04:14:45;18.77;;;14.65;;
30185;SDS011;31152;49.190;8.122;2022-08-18T04:17:15;20.67;;;14.75;;
30185;SDS011;31152;49.190;8.122;2022-08-18T04:22:16;20.63;;;15.60;;
30185;SDS011;31152;49.190;8.122;2022-08-18T04:24:43;19.13;;;15.13;;
30185;SDS011;31152;49.190;8.122;2022-08-18T04:27:10;16.88;;;14.38;;
30185;SDS011;31152;49.190;8.122;2022-08-18T04:29:39;20.13;;;15.45;;
30185;SDS011;31152;49.190;8.122;2022-08-18T04:32:06;20.15;;;15.40;;
30185;SDS011;31152;49.190;8.122;2022-08-18T04:34:33;24.08;;;16.63;;
30185;SDS011;31152;49.190;8.122;2022-08-18T04:37:01;18.58;;;15.23;;
30185;SDS011;31152;49.190;8.122;2022-08-18T04:39:28;19.73;;;15.35;;
30185;SDS011;31152;49.190;8.122;2022-08-18T04:41:55;21.88;;;16.20;;
30185;SDS011;31152;49.190;8.122;2022-08-18T04:44:26;18.58;;;14.32;;
30185;SDS011;31152;49.190;8.122;2022-08-18T04:46:55;18.30;;;15.13;;
30185;SDS011;31152;49.190;8.122;2022-08-18T04:49:28;17.75;;;14.98;;
30185;SDS011;31152;49.190;8.122;2022-08-18T04:51:57;23.13;;;15.02;;
30185;SDS011;31152;49.190;8.122;2022-08-18T04:55:03;23.05;;;15.55;;
30185;SDS011;31152;49.190;8.122;2022-08-18T04:57:30;21.35;;;14.68;;
30185;SDS011;31152;49.190;8.122;2022-08-18T05:00:00;18.92;;;14.48;;
30185;SDS011;31152;49.190;8.122;2022-08-18T05:02:29;22.27;;;15.90;;
30185;SDS011;31152;49.190;8.122;2022-08-18T05:04:58;21.63;;;15.35;;
30185;SDS011;31152;49.190;8.122;2022-08-18T05:07:30;19.50;;;15.00;;
30185;SDS011;31152;49.190;8.122;2022-08-18T05:09:57;17.00;;;14.15;;
30185;SDS011;31152;49.190;8.122;2022-08-18T05:12:24;17.27;;;13.68;;
30185;SDS011;31152;49.190;8.122;2022-08-18T05:14:52;19.63;;;13.77;;
30185;SDS011;31152;49.190;8.122;2022-08-18T05:17:21;17.65;;;13.93;;
30185;SDS011;31152;49.190;8.122;2022-08-18T05:19:56;17.58;;;13.65;;
30185;SDS011;31152;49.190;8.122;2022-08-18T05:22:23;19.17;;;14.00;;
30185;SDS011;31152;49.190;8.122;2022-08-18T05:24:56;18.27;;;14.23;;
30185;SDS011;31152;49.190;8.122;2022-08-18T05:27:23;15.68;;;12.77;;
30185;SDS011;31152;49.190;8.122;2022-08-18T05:29:50;17.40;;;13.48;;
30185;SDS011;31152;49.190;8.122;2022-08-18T05:32:17;17.65;;;13.15;;
30185;SDS011;31152;49.190;8.122;2022-08-18T05:35:11;17.02;;;13.13;;
30185;SDS011;31152;49.190;8.122;2022-08-18T05:37:45;17.98;;;13.20;;
30185;SDS011;31152;49.190;8.122;2022-08-18T05:40:27;16.50;;;13.30;;
30185;SDS011;31152;49.190;8.122;2022-08-18T05:42:56;17.35;;;12.65;;
30185;SDS011;31152;49.190;8.122;2022-08-18T05:45:25;16.00;;;13.80;;
30185;SDS011;31152;49.190;8.122;2022-08-18T05:47:57;21.98;;;13.70;;
30185;SDS011;31152;49.190;8.122;2022-08-18T05:50:25;15.63;;;13.18;;
30185;SDS011;31152;49.190;8.122;2022-08-18T05:55:33;19.38;;;13.55;;
30185;SDS011;31152;49.190;8.122;2022-08-18T05:58:24;17.05;;;13.00;;
30185;SDS011;31152;49.190;8.122;2022-08-18T06:01:03;16.02;;;12.15;;
30185;SDS011;31152;49.190;8.122;2022-08-18T06:03:40;15.27;;;11.55;;
30185;SDS011;31152;49.190;8.122;2022-08-18T06:06:15;14.02;;;11.75;;
30185;SDS011;31152;49.190;8.122;2022-08-18T06:08:56;14.73;;;11.88;;
30185;SDS011;31152;49.190;8.122;2022-08-18T06:11:39;17.05;;;12.55;;
30185;SDS011;31152;49.190;8.122;2022-08-18T06:14:06;15.82;;;12.52;;
30185;SDS011;31152;49.190;8.122;2022-08-18T06:24:45;14.80;;;12.05;;
30185;SDS011;31152;49.190;8.122;2022-08-18T06:30:14;17.17;;;11.98;;
30185;SDS011;31152;49.190;8.122;2022-08-18T06:36:07;14.32;;;11.15;;
30185;SDS011;31152;49.190;8.122;2022-08-18T06:38:54;14.00;;;10.65;;
30185;SDS011;31152;49.190;8.122;2022-08-18T06:41:33;14.45;;;10.18;;
30185;SDS011;31152;49.190;8.122;2022-08-18T06:52:50;12.10;;;8.90;;
30185;SDS011;31152;49.190;8.122;2022-08-18T06:55:30;15.07;;;9.30;;
30185;SDS011;31152;49.190;8.122;2022-08-18T06:57:58;15.63;;;9.43;;
30185;SDS011;31152;49.190;8.122;2022-08-18T07:00:28;16.13;;;10.00;;
30185;SDS011;31152;49.190;8.122;2022-08-18T07:03:10;15.00;;;9.73;;
30185;SDS011;31152;49.190;8.122;2022-08-18T07:05:58;12.87;;;9.20;;
30185;SDS011;31152;49.190;8.122;2022-08-18T07:08:44;12.43;;;8.85;;
30185;SDS011;31152;49.190;8.122;2022-08-18T07:13:56;12.40;;;9.65;;
30185;SDS011;31152;49.190;8.122;2022-08-18T07:16:42;12.70;;;9.57;;
30185;SDS011;31152;49.190;8.122;2022-08-18T07:19:29;13.00;;;9.40;;
30185;SDS011;31152;49.190;8.122;2022-08-18T07:22:11;13.45;;;9.27;;
30185;SDS011;31152;49.190;8.122;2022-08-18T07:24:43;10.70;;;9.00;;
30185;SDS011;31152;49.190;8.122;2022-08-18T07:27:16;16.23;;;9.93;;
30185;SDS011;31152;49.190;8.122;2022-08-18T07:29:57;17.52;;;9.68;;
30185;SDS011;31152;49.190;8.122;2022-08-18T07:32:48;12.77;;;9.35;;
30185;SDS011;31152;49.190;8.122;2022-08-18T07:35:36;13.52;;;9.93;;
30185;SDS011;31152;49.190;8.122;2022-08-18T07:38:18;11.18;;;9.25;;
30185;SDS011;31152;49.190;8.122;2022-08-18T07:41:25;12.32;;;10.10;;
30185;SDS011;31152;49.190;8.122;2022-08-18T07:44:08;14.05;;;10.27;;
30185;SDS011;31152;49.190;8.122;2022-08-18T07:47:00;14.02;;;9.65;;
30185;SDS011;31152;49.190;8.122;2022-08-18T07:49:48;12.18;;;9.55;;
30185;SDS011;31152;49.190;8.122;2022-08-18T07:52:59;12.73;;;9.57;;
30185;SDS011;31152;49.190;8.122;2022-08-18T07:55:33;10.60;;;9.20;;
30185;SDS011;31152;49.190;8.122;2022-08-18T08:00:57;11.30;;;9.98;;
30185;SDS011;31152;49.190;8.122;2022-08-18T08:03:44;12.82;;;10.35;;
30185;SDS011;31152;49.190;8.122;2022-08-18T08:06:23;16.60;;;10.90;;
30185;SDS011;31152;49.190;8.122;2022-08-18T08:09:15;18.52;;;11.50;;
30185;SDS011;31152;49.190;8.122;2022-08-18T08:11:58;15.48;;;11.80;;
30185;SDS011;31152;49.190;8.122;2022-08-18T08:17:28;13.40;;;11.93;;
30185;SDS011;31152;49.190;8.122;2022-08-18T08:20:19;16.25;;;12.35;;
30185;SDS011;31152;49.190;8.122;2022-08-18T08:25:33;21.48;;;12.68;;
30185;SDS011;31152;49.190;8.122;2022-08-18T08:28:25;14.63;;;11.63;;
30185;SDS011;31152;49.190;8.122;2022-08-18T08:31:10;17.55;;;12.68;;
30185;SDS011;31152;49.190;8.122;2022-08-18T08:34:06;17.48;;;13.75;;
30185;SDS011;31152;49.190;8.122;2022-08-18T08:36:57;20.17;;;14.45;;
30185;SDS011;31152;49.190;8.122;2022-08-18T08:44:55;18.05;;;13.50;;
30185;SDS011;31152;49.190;8.122;2022-08-18T08:47:37;19.55;;;14.75;;
30185;SDS011;31152;49.190;8.122;2022-08-18T08:50:38;23.20;;;13.88;;
30185;SDS011;31152;49.190;8.122;2022-08-18T08:56:16;21.08;;;13.90;;
30185;SDS011;31152;49.190;8.122;2022-08-18T08:58:56;19.73;;;14.20;;
30185;SDS011;31152;49.190;8.122;2022-08-18T09:04:17;16.88;;;13.05;;
30185;SDS011;31152;49.190;8.122;2022-08-18T09:10:08;18.33;;;13.38;;
30185;SDS011;31152;49.190;8.122;2022-08-18T09:15:44;16.92;;;13.23;;
30185;SDS011;31152;49.190;8.122;2022-08-18T09:24:07;14.07;;;12.65;;
30185;SDS011;31152;49.190;8.122;2022-08-18T09:35:10;12.82;;;11.20;;
30185;SDS011;31152;49.190;8.122;2022-08-18T09:37:46;16.67;;;14.32;;
30185;SDS011;31152;49.190;8.122;2022-08-18T09:40:36;15.75;;;14.02;;
30185;SDS011;31152;49.190;8.122;2022-08-18T09:43:57;18.20;;;13.57;;
30185;SDS011;31152;49.190;8.122;2022-08-18T09:46:58;24.83;;;15.55;;
30185;SDS011;31152;49.190;8.122;2022-08-18T10:10:34;23.05;;;15.13;;
30185;SDS011;31152;49.190;8.122;2022-08-18T10:24:21;18.55;;;14.48;;
30185;SDS011;31152;49.190;8.122;2022-08-18T10:27:03;19.77;;;16.38;;
30185;SDS011;31152;49.190;8.122;2022-08-18T10:29:43;17.80;;;15.85;;
30185;SDS011;31152;49.190;8.122;2022-08-18T10:37:18;24.02;;;18.95;;
30185;SDS011;31152;49.190;8.122;2022-08-18T10:39:55;20.85;;;18.08;;
30185;SDS011;31152;49.190;8.122;2022-08-18T10:45:05;19.98;;;17.83;;
30185;SDS011;31152;49.190;8.122;2022-08-18T10:50:46;23.65;;;20.88;;
30185;SDS011;31152;49.190;8.122;2022-08-18T11:04:36;25.83;;;20.98;;
30185;SDS011;31152;49.190;8.122;2022-08-18T11:07:11;24.92;;;22.30;;
30185;SDS011;31152;49.190;8.122;2022-08-18T11:09:46;29.23;;;23.02;;
30185;SDS011;31152;49.190;8.122;2022-08-18T11:12:39;30.42;;;23.65;;
30185;SDS011;31152;49.190;8.122;2022-08-18T11:18:39;26.83;;;22.38;;
30185;SDS011;31152;49.190;8.122;2022-08-18T11:21:29;26.67;;;23.77;;
30185;SDS011;31152;49.190;8.122;2022-08-18T11:24:18;31.55;;;23.52;;
30185;SDS011;31152;49.190;8.122;2022-08-18T11:26:56;27.10;;;20.75;;
30185;SDS011;31152;49.190;8.122;2022-08-18T11:29:27;26.73;;;18.65;;
30185;SDS011;31152;49.190;8.122;2022-08-18T11:31:59;23.42;;;19.30;;
30185;SDS011;31152;49.190;8.122;2022-08-18T11:43:12;16.98;;;14.38;;
30185;SDS011;31152;49.190;8.122;2022-08-18T11:48:54;17.30;;;14.00;;
30185;SDS011;31152;49.190;8.122;2022-08-18T11:51:28;18.45;;;13.75;;
30185;SDS011;31152;49.190;8.122;2022-08-18T11:53:59;15.32;;;12.52;;
30185;SDS011;31152;49.190;8.122;2022-08-18T11:56:40;23.45;;;12.70;;
30185;SDS011;31152;49.190;8.122;2022-08-18T12:02:14;20.08;;;12.90;;
30185;SDS011;31152;49.190;8.122;2022-08-18T12:04:42;14.95;;;11.77;;
30185;SDS011;31152;49.190;8.122;2022-08-18T12:07:15;13.50;;;12.10;;
30185;SDS011;31152;49.190;8.122;2022-08-18T12:12:54;12.55;;;10.25;;
30185;SDS011;31152;49.190;8.122;2022-08-18T12:18:12;16.75;;;11.43;;
30185;SDS011;31152;49.190;8.122;2022-08-18T12:20:54;15.77;;;12.68;;
30185;SDS011;31152;49.190;8.122;2022-08-18T12:23:28;13.45;;;10.60;;
30185;SDS011;31152;49.190;8.122;2022-08-18T12:26:16;16.60;;;11.90;;
30185;SDS011;31152;49.190;8.122;2022-08-18T12:29:03;15.38;;;12.27;;
30185;SDS011;31152;49.190;8.122;2022-08-18T12:31:36;14.48;;;11.13;;
30185;SDS011;31152;49.190;8.122;2022-08-18T12:34:23;14.38;;;10.50;;
30185;SDS011;31152;49.190;8.122;2022-08-18T12:36:55;15.20;;;10.77;;
30185;SDS011;31152;49.190;8.122;2022-08-18T12:39:26;14.23;;;11.65;;
30185;SDS011;31152;49.190;8.122;2022-08-18T12:41:54;13.43;;;12.02;;
30185;SDS011;31152;49.190;8.122;2022-08-18T12:44:24;13.07;;;9.80;;
30185;SDS011;31152;49.190;8.122;2022-08-18T12:46:53;14.00;;;10.50;;
30185;SDS011;31152;49.190;8.122;2022-08-18T12:49:23;12.10;;;10.10;;
30185;SDS011;31152;49.190;8.122;2022-08-18T12:51:55;12.25;;;10.80;;
30185;SDS011;31152;49.190;8.122;2022-08-18T12:54:23;11.48;;;10.25;;
30185;SDS011;31152;49.190;8.122;2022-08-18T12:56:51;12.52;;;11.20;;
30185;SDS011;31152;49.190;8.122;2022-08-18T12:59:23;14.63;;;10.80;;
30185;SDS011;31152;49.190;8.122;2022-08-18T13:01:50;16.38;;;10.73;;
30185;SDS011;31152;49.190;8.122;2022-08-18T13:04:26;14.77;;;10.00;;
30185;SDS011;31152;49.190;8.122;2022-08-18T13:06:56;11.43;;;10.18;;
30185;SDS011;31152;49.190;8.122;2022-08-18T13:09:31;15.45;;;11.95;;
30185;SDS011;31152;49.190;8.122;2022-08-18T13:12:19;18.27;;;11.68;;
30185;SDS011;31152;49.190;8.122;2022-08-18T13:14:46;11.95;;;9.88;;
30185;SDS011;31152;49.190;8.122;2022-08-18T13:17:18;12.65;;;10.18;;
30185;SDS011;31152;49.190;8.122;2022-08-18T13:20:09;13.07;;;11.77;;
30185;SDS011;31152;49.190;8.122;2022-08-18T13:22:39;10.80;;;9.23;;
30185;SDS011;31152;49.190;8.122;2022-08-18T13:25:11;11.85;;;10.52;;
30185;SDS011;31152;49.190;8.122;2022-08-18T13:28:03;12.82;;;10.43;;
30185;SDS011;31152;49.190;8.122;2022-08-18T13:30:31;12.43;;;10.77;;
30185;SDS011;31152;49.190;8.122;2022-08-18T13:33:01;12.77;;;10.10;;
30185;SDS011;31152;49.190;8.122;2022-08-18T13:35:49;11.63;;;10.30;;
30185;SDS011;31152;49.190;8.122;2022-08-18T13:38:20;14.70;;;9.95;;
30185;SDS011;31152;49.190;8.122;2022-08-18T13:43:25;11.18;;;9.60;;
30185;SDS011;31152;49.190;8.122;2022-08-18T13:46:02;11.82;;;9.40;;
30185;SDS011;31152;49.190;8.122;2022-08-18T13:48:30;14.27;;;9.10;;
30185;SDS011;31152;49.190;8.122;2022-08-18T13:51:00;11.88;;;8.80;;
30185;SDS011;31152;49.190;8.122;2022-08-18T13:53:29;10.52;;;8.75;;
30185;SDS011;31152;49.190;8.122;2022-08-18T13:55:57;10.55;;;8.23;;
30185;SDS011;31152;49.190;8.122;2022-08-18T13:58:25;11.52;;;7.72;;
30185;SDS011;31152;49.190;8.122;2022-08-18T14:00:58;9.60;;;7.85;;
30185;SDS011;31152;49.190;8.122;2022-08-18T14:03:49;10.60;;;8.10;;
30185;SDS011;31152;49.190;8.122;2022-08-18T14:06:17;8.88;;;7.35;;
30185;SDS011;31152;49.190;8.122;2022-08-18T14:08:51;13.00;;;7.93;;
30185;SDS011;31152;49.190;8.122;2022-08-18T14:11:20;10.38;;;8.00;;
30185;SDS011;31152;49.190;8.122;2022-08-18T14:13:53;13.40;;;7.60;;
30185;SDS011;31152;49.190;8.122;2022-08-18T14:16:20;8.40;;;6.82;;
30185;SDS011;31152;49.190;8.122;2022-08-18T14:18:51;7.68;;;6.70;;
30185;SDS011;31152;49.190;8.122;2022-08-18T14:21:43;7.88;;;6.50;;
30185;SDS011;31152;49.190;8.122;2022-08-18T14:24:36;11.45;;;7.18;;
30185;SDS011;31152;49.190;8.122;2022-08-18T14:27:24;10.93;;;7.03;;
30185;SDS011;31152;49.190;8.122;2022-08-18T14:30:10;9.52;;;7.38;;
30185;SDS011;31152;49.190;8.122;2022-08-18T14:32:41;9.27;;;6.90;;
30185;SDS011;31152;49.190;8.122;2022-08-18T14:35:15;10.45;;;7.10;;
30185;SDS011;31152;49.190;8.122;2022-08-18T14:38:02;10.25;;;7.28;;
30185;SDS011;31152;49.190;8.122;2022-08-18T14:40:30;7.80;;;7.03;;
30185;SDS011;31152;49.190;8.122;2022-08-18T14:42:58;8.10;;;7.28;;
30185;SDS011;31152;49.190;8.122;2022-08-18T14:45:31;11.30;;;7.30;;
30185;SDS011;31152;49.190;8.122;2022-08-18T14:48:03;8.48;;;6.57;;
30185;SDS011;31152;49.190;8.122;2022-08-18T14:50:32;12.82;;;7.28;;
30185;SDS011;31152;49.190;8.122;2022-08-18T14:53:00;8.93;;;6.80;;
30185;SDS011;31152;49.190;8.122;2022-08-18T14:55:27;7.32;;;6.55;;
30185;SDS011;31152;49.190;8.122;2022-08-18T14:57:56;7.28;;;6.40;;
30185;SDS011;31152;49.190;8.122;2022-08-18T15:00:24;9.82;;;6.55;;
30185;SDS011;31152;49.190;8.122;2022-08-18T15:02:52;11.55;;;7.00;;
30185;SDS011;31152;49.190;8.122;2022-08-18T15:05:19;7.22;;;6.13;;
30185;SDS011;31152;49.190;8.122;2022-08-18T15:07:50;8.50;;;6.32;;
30185;SDS011;31152;49.190;8.122;2022-08-18T15:10:18;10.07;;;7.40;;
30185;SDS011;31152;49.190;8.122;2022-08-18T15:12:53;8.95;;;7.22;;
30185;SDS011;31152;49.190;8.122;2022-08-18T15:15:20;11.02;;;6.57;;
30185;SDS011;31152;49.190;8.122;2022-08-18T15:17:50;10.73;;;6.55;;
30185;SDS011;31152;49.190;8.122;2022-08-18T15:20:20;8.77;;;6.47;;
30185;SDS011;31152;49.190;8.122;2022-08-18T15:22:57;10.02;;;7.70;;
30185;SDS011;31152;49.190;8.122;2022-08-18T15:25:53;9.52;;;6.97;;
30185;SDS011;31152;49.190;8.122;2022-08-18T15:28:22;8.63;;;7.25;;
30185;SDS011;31152;49.190;8.122;2022-08-18T15:30:51;10.68;;;7.97;;
30185;SDS011;31152;49.190;8.122;2022-08-18T15:33:38;11.27;;;8.52;;
30185;SDS011;31152;49.190;8.122;2022-08-18T15:36:07;15.10;;;11.88;;
30185;SDS011;31152;49.190;8.122;2022-08-18T15:38:44;11.75;;;7.97;;
30185;SDS011;31152;49.190;8.122;2022-08-18T15:41:11;8.70;;;7.60;;
30185;SDS011;31152;49.190;8.122;2022-08-18T15:44:09;14.35;;;8.45;;
30185;SDS011;31152;49.190;8.122;2022-08-18T15:46:36;9.65;;;8.55;;
30185;SDS011;31152;49.190;8.122;2022-08-18T15:49:05;10.23;;;8.68;;
30185;SDS011;31152;49.190;8.122;2022-08-18T15:51:40;11.18;;;8.98;;
30185;SDS011;31152;49.190;8.122;2022-08-18T15:54:13;11.68;;;8.98;;
30185;SDS011;31152;49.190;8.122;2022-08-18T15:56:40;11.30;;;9.20;;
30185;SDS011;31152;49.190;8.122;2022-08-18T15:59:10;12.73;;;9.95;;
30185;SDS011;31152;49.190;8.122;2022-08-18T16:01:37;10.85;;;9.68;;
30185;SDS011;31152;49.190;8.122;2022-08-18T16:04:09;8.82;;;7.93;;
30185;SDS011;31152;49.190;8.122;2022-08-18T16:06:42;10.95;;;9.25;;
30185;SDS011;31152;49.190;8.122;2022-08-18T16:11:41;10.57;;;9.48;;
30185;SDS011;31152;49.190;8.122;2022-08-18T16:14:08;11.05;;;9.93;;
30185;SDS011;31152;49.190;8.122;2022-08-18T16:16:38;13.13;;;9.70;;
30185;SDS011;31152;49.190;8.122;2022-08-18T16:19:07;12.65;;;9.55;;
30185;SDS011;31152;49.190;8.122;2022-08-18T16:21:34;10.88;;;9.35;;
30185;SDS011;31152;49.190;8.122;2022-08-18T16:24:05;10.48;;;8.85;;
30185;SDS011;31152;49.190;8.122;2022-08-18T16:26:35;13.95;;;11.10;;
30185;SDS011;31152;49.190;8.122;2022-08-18T16:29:02;11.90;;;9.60;;
30185;SDS011;31152;49.190;8.122;2022-08-18T16:31:29;13.30;;;9.65;;
30185;SDS011;31152;49.190;8.122;2022-08-18T16:33:56;10.27;;;8.85;;
30185;SDS011;31152;49.190;8.122;2022-08-18T16:36:23;12.25;;;9.88;;
30185;SDS011;31152;49.190;8.122;2022-08-18T16:38:51;13.63;;;9.85;;
30185;SDS011;31152;49.190;8.122;2022-08-18T16:41:26;10.82;;;9.32;;
30185;SDS011;31152;49.190;8.122;2022-08-18T16:43:53;11.20;;;10.00;;
30185;SDS011;31152;49.190;8.122;2022-08-18T16:46:23;10.48;;;9.30;;
30185;SDS011;31152;49.190;8.122;2022-08-18T16:48:53;9.55;;;8.23;;
30185;SDS011;31152;49.190;8.122;2022-08-18T16:51:25;10.57;;;8.73;;
30185;SDS011;31152;49.190;8.122;2022-08-18T16:53:53;11.00;;;8.48;;
30185;SDS011;31152;49.190;8.122;2022-08-18T16:56:23;11.20;;;8.18;;
30185;SDS011;31152;49.190;8.122;2022-08-18T16:58:52;13.20;;;8.88;;
30185;SDS011;31152;49.190;8.122;2022-08-18T17:01:38;11.13;;;8.45;;
30185;SDS011;31152;49.190;8.122;2022-08-18T17:04:26;11.57;;;8.32;;
30185;SDS011;31152;49.190;8.122;2022-08-18T17:07:02;10.60;;;8.30;;
30185;SDS011;31152;49.190;8.122;2022-08-18T17:09:30;10.93;;;8.80;;
30185;SDS011;31152;49.190;8.122;2022-08-18T17:11:58;11.05;;;8.43;;
30185;SDS011;31152;49.190;8.122;2022-08-18T17:14:28;11.13;;;9.10;;
30185;SDS011;31152;49.190;8.122;2022-08-18T17:16:57;11.77;;;10.40;;
30185;SDS011;31152;49.190;8.122;2022-08-18T17:19:26;10.38;;;8.93;;
30185;SDS011;31152;49.190;8.122;2022-08-18T17:21:55;10.30;;;8.93;;
30185;SDS011;31152;49.190;8.122;2022-08-18T17:24:22;12.57;;;8.50;;
30185;SDS011;31152;49.190;8.122;2022-08-18T17:27:05;10.10;;;9.10;;
30185;SDS011;31152;49.190;8.122;2022-08-18T17:30:00;10.65;;;9.35;;
30185;SDS011;31152;49.190;8.122;2022-08-18T17:32:40;12.05;;;8.77;;
30185;SDS011;31152;49.190;8.122;2022-08-18T17:35:20;10.70;;;9.57;;
30185;SDS011;31152;49.190;8.122;2022-08-18T17:37:56;12.82;;;10.05;;
30185;SDS011;31152;49.190;8.122;2022-08-18T17:40:39;13.15;;;10.80;;
30185;SDS011;31152;49.190;8.122;2022-08-18T17:43:17;13.02;;;10.00;;
30185;SDS011;31152;49.190;8.122;2022-08-18T17:45:48;10.55;;;9.27;;
30185;SDS011;31152;49.190;8.122;2022-08-18T17:48:57;11.18;;;10.00;;
30185;SDS011;31152;49.190;8.122;2022-08-18T17:51:15;12.77;;;10.00;;